Flight Track Log - Related Links

Times and Time Zones

All times are in EDT time to prevent confusion due to time zone crossing. See the SKW6336 flight status page for this flight to view local times or setup timezone preferences in your user account.

Time Position Orientation Groundspeed Altitude Reporting Facility
EDT Latitude Longitude Course Direction KTS MPH feet Rate Location/Type
Sun 11:48:05 AM 37.6000 -122.3333 90° East 159 183 1,400  Level Northern Cal TRACON
Sun 11:49:05 AM 37.6000 -122.2667 90° East 222 255 4,000 2,447 Climbing Northern Cal TRACON
Sun 11:49:48 AM 37.5989 -122.2167 92° East 239 275 5,600 2,192 Climbing Oakland Center
Sun 11:50:49 AM 37.6661 -122.1669 30° Northeast 282 325 7,800 2,213 Climbing Oakland Center
Sun 11:51:50 AM 37.7394 -122.1072 33° Northeast 307 353 10,100 2,361 Climbing Oakland Center
Sun 11:52:51 AM 37.8169 -122.0472 31° Northeast 324 373 12,600 2,361 Climbing Oakland Center
Sun 11:53:52 AM 37.8967 -121.9853 32° Northeast 338 389 14,900 2,066 Climbing Oakland Center
Sun 11:54:53 AM 37.9986 -121.9036 32° Northeast 361 415 16,800 1,918 Climbing Oakland Center
Sun 11:55:54 AM 38.0878 -121.8339 32° Northeast 374 430 18,800 1,672 Climbing Oakland Center
Sun 11:56:55 AM 38.1800 -121.7608 32° Northeast 386 444 20,200 1,426 Climbing Oakland Center
Sun 11:57:56 AM 38.2753 -121.6856 32° Northeast 399 459 21,700 1,328 Climbing Oakland Center
Sun 11:58:57 AM 38.3711 -121.6094 32° Northeast 405 466 22,900 639 Climbing Oakland Center
Sun 11:59:58 AM 38.4783 -121.5069 37° Northeast 429 494 23,000 49 Climbing Oakland Center
Sun 12:00:59 PM 38.5558 -121.4075 45° Northeast 449 517 23,000  Level Oakland Center
Sun 12:02:00 PM 38.6433 -121.2969 45° Northeast 446 513 23,000  Level Oakland Center
Sun 12:03:01 PM 38.7314 -121.1864 44° Northeast 445 512 23,000  Level Oakland Center
Sun 12:04:02 PM 38.8108 -121.0817 46° Northeast 419 482 23,000 -148 Level Oakland Center
Sun 12:05:03 PM 38.8919 -120.9769 45° Northeast 413 475 22,700 -683 Descending Oakland Center
Sun 12:06:05 PM 38.9869 -120.8442 47° Northeast 420 483 21,600 -1,220 Descending Oakland Center
Sun 12:07:06 PM 39.0683 -120.7444 44° Northeast 405 466 20,200 -1,869 Descending Oakland Center
Sun 12:08:07 PM 39.1428 -120.6469 45° Northeast 384 442 17,800 -1,918 Descending Oakland Center
Sun 12:09:08 PM 39.2147 -120.5536 45° Northeast 369 425 16,300 -885 Descending Oakland Center
Sun 12:10:09 PM 39.2847 -120.4603 46° Northeast 361 415 16,000 -148 Descending Oakland Center
Sun 12:11:10 PM 39.3558 -120.3681 45° Northeast 363 418 16,000  Level Oakland Center
Sun 12:12:11 PM 39.4281 -120.2719 46° Northeast 370 426 16,000 -683 Level Oakland Center
Sun 12:13:13 PM 39.5044 -120.1786 43° Northeast 377 434 14,600 -2,049 Descending Oakland Center
Sun 12:14:14 PM 39.5822 -120.0781 45° Northeast 368 423 11,800 -1,918 Descending Oakland Center
Sun 12:15:15 PM 39.6461 -119.9983 44° Northeast 320 368 10,700 -885 Descending Oakland Center
Sun 12:16:16 PM 39.7028 -119.9328 42° Northeast 290 334 10,000 -639 Descending Oakland Center
Sun 12:17:17 PM 39.7258 -119.8503 70° East 259 298 9,400 -492 Descending Oakland Center
Sun 12:18:18 PM 39.7197 -119.7719 96° East 246 283 9,000 -689 Descending Oakland Center
Sun 12:19:19 PM 39.6647 -119.7689 178° South 215 247 8,000 -780 Descending Oakland Center
Sun 12:20:21 PM 39.6103 -119.7686 180° South 203 234 7,400 -1,145 Descending Oakland Center
Sun 12:21:30 PM 39.5667 -119.7667 178° South 151 174 5,500 -1,652 Descending Northern Cal TRACON

Login

Don't have an account? Register now (free) for customized features, flight alerts, and more!